Time;durP1;ratioP1;P1;durP2;ratioP2;P2;SDS_P1;SDS_P2;PMS_P1;PMS_P2;Temp;Humidity;BMP_temperature;BMP_pressure;BME280_temperature;BME280_humidity;BME280_pressure;Samples;Min_cycle;Max_cycle;Signal;HPM_P1;HPM_P2
2023/09/26 00:07:15;;;;;;;11.80;5.43;;;14.70;99.90;;;;;;1937189;72;26298;-90
2023/09/26 00:24:30;;;;;;;16.33;5.93;;;14.70;99.90;;;;;;1881714;74;26288;-91
2023/09/26 01:28:41;;;;;;;16.50;7.30;;;14.60;99.90;;;;;;1984026;71;27245;-89
2023/09/26 01:34:17;;;;;;;17.50;7.57;;;14.60;99.90;;;;;;1961169;72;26914;-89
2023/09/26 01:37:06;;;;;;;18.07;7.30;;;14.50;99.90;;;;;;1929548;73;25232;-90
2023/09/26 01:39:55;;;;;;;20.83;7.80;;;14.50;99.90;;;;;;1940874;73;25181;-89
2023/09/26 01:42:44;;;;;;;14.80;7.43;;;14.40;99.90;;;;;;1936784;73;25694;-89
2023/09/26 01:45:33;;;;;;;16.07;8.00;;;14.50;99.90;;;;;;1898502;73;25826;-89
2023/09/26 01:48:22;;;;;;;14.10;7.23;;;14.40;99.90;;;;;;1884536;75;25274;-89
2023/09/26 01:51:11;;;;;;;13.13;7.13;;;14.40;99.90;;;;;;1836572;76;25181;-91
2023/09/26 01:54:00;;;;;;;18.27;7.67;;;14.40;99.90;;;;;;1875695;75;25678;-91
2023/09/26 01:56:48;;;;;;;18.70;8.33;;;14.40;99.90;;;;;;1839492;76;25728;-90
2023/09/26 01:59:37;;;;;;;16.70;7.80;;;14.50;99.90;;;;;;1878286;75;25296;-90
2023/09/26 02:02:26;;;;;;;12.97;7.77;;;14.40;99.90;;;;;;1868177;75;25649;-90
2023/09/26 02:05:16;;;;;;;23.73;8.17;;;14.40;99.90;;;;;;1875941;75;25215;-91
2023/09/26 02:10:47;;;;;;;18.83;7.90;;;14.40;99.90;;;;;;1960044;71;27100;-89
2023/09/26 02:18:27;;;;;;;18.93;9.00;;;14.40;99.90;;;;;;1987884;71;26133;-90
2023/09/26 02:21:18;;;;;;;18.77;8.73;;;14.30;99.90;;;;;;2009743;71;25251;-90
2023/09/26 02:24:07;;;;;;;22.23;8.83;;;14.30;99.90;;;;;;2000979;71;25217;-90
2023/09/26 02:26:58;;;;;;;17.13;7.70;;;14.40;99.90;;;;;;2003999;71;25215;-89
2023/09/26 02:29:48;;;;;;;19.67;8.70;;;14.30;99.90;;;;;;2012250;71;25194;-89
2023/09/26 02:32:37;;;;;;;18.30;8.80;;;14.40;99.90;;;;;;1992124;71;25133;-89
2023/09/26 02:35:26;;;;;;;14.73;8.83;;;14.40;99.90;;;;;;1990314;71;25638;-90
2023/09/26 02:41:31;;;;;;;20.03;8.83;;;14.30;99.90;;;;;;2000030;69;26293;-91
2023/09/26 02:47:04;;;;;;;22.57;8.87;;;14.30;99.90;;;;;;1938125;73;27070;-90
2023/09/26 02:49:52;;;;;;;20.03;8.87;;;14.40;99.90;;;;;;1921052;73;25248;-90
2023/09/26 02:52:43;;;;;;;18.77;8.67;;;14.40;99.90;;;;;;1944433;73;25787;-89
2023/09/26 02:55:31;;;;;;;20.63;8.80;;;14.40;99.90;;;;;;1934241;73;25735;-90
2023/09/26 02:58:20;;;;;;;18.43;8.77;;;14.40;99.90;;;;;;1940155;73;25263;-90
2023/09/26 03:01:09;;;;;;;24.20;8.97;;;14.40;99.90;;;;;;1919930;73;25194;-90
2023/09/26 03:03:57;;;;;;;21.33;8.50;;;14.40;99.90;;;;;;1928641;73;25927;-90
2023/09/26 03:06:46;;;;;;;14.07;7.40;;;14.40;99.90;;;;;;1919952;73;25184;-90
2023/09/26 03:09:34;;;;;;;22.03;7.70;;;14.40;99.90;;;;;;1933301;73;25193;-90
2023/09/26 03:12:23;;;;;;;16.27;8.03;;;14.40;99.90;;;;;;1945273;73;25254;-90
2023/09/26 03:15:14;;;;;;;23.53;8.10;;;14.30;99.90;;;;;;1930870;73;25225;-90
2023/09/26 03:18:02;;;;;;;27.10;8.07;;;14.40;99.90;;;;;;1919993;73;25264;-90
2023/09/26 03:20:51;;;;;;;20.00;8.63;;;14.30;99.90;;;;;;1940382;73;25785;-90
2023/09/26 03:50:54;;;;;;;21.20;8.10;;;14.30;99.90;;;;;;1909695;72;26386;-89
2023/09/26 03:57:31;;;;;;;22.00;8.17;;;14.40;99.90;;;;;;1982360;71;26834;-89
2023/09/26 04:00:25;;;;;;;18.50;7.50;;;14.40;99.90;;;;;;2025747;70;25246;-90
2023/09/26 04:03:11;;;;;;;14.90;6.37;;;14.30;99.90;;;;;;2020433;70;25132;-90
2023/09/26 04:26:17;;;;;;;20.17;6.40;;;14.30;99.90;;;;;;1947792;72;27013;-90
2023/09/26 04:29:06;;;;;;;13.70;6.50;;;14.30;99.90;;;;;;1956361;73;25332;-89
2023/09/26 04:34:47;;;;;;;13.93;6.60;;;14.30;99.90;;;;;;1966159;72;27072;-90
2023/09/26 04:37:37;;;;;;;22.33;6.87;;;14.30;99.90;;;;;;1953627;72;25157;-91
2023/09/26 04:40:25;;;;;;;28.37;7.53;;;14.30;99.90;;;;;;1954740;72;25741;-90
2023/09/26 04:43:14;;;;;;;19.97;6.97;;;14.20;99.90;;;;;;1972843;72;25239;-90
2023/09/26 04:46:03;;;;;;;20.97;7.30;;;14.20;99.90;;;;;;1957122;72;25277;-91
2023/09/26 04:48:51;;;;;;;16.23;6.73;;;14.30;99.90;;;;;;1961287;72;25780;-91
2023/09/26 04:51:39;;;;;;;18.33;7.17;;;14.40;99.90;;;;;;1959571;72;25136;-90
2023/09/26 04:54:28;;;;;;;18.27;6.80;;;14.40;99.90;;;;;;1961808;72;25241;-91
2023/09/26 04:57:17;;;;;;;19.37;7.00;;;14.40;99.90;;;;;;1961826;72;25253;-91
2023/09/26 05:03:19;;;;;;;12.73;6.33;;;14.50;99.90;;;;;;1852427;75;27278;-90
2023/09/26 05:06:08;;;;;;;16.73;6.50;;;14.50;99.90;;;;;;1800181;78;25377;-90
2023/09/26 05:08:57;;;;;;;17.53;6.80;;;14.50;99.90;;;;;;1800500;78;25764;-90
2023/09/26 05:11:45;;;;;;;26.83;7.53;;;14.40;99.90;;;;;;1810714;78;25244;-90
2023/09/26 05:14:34;;;;;;;21.77;7.57;;;14.40;99.90;;;;;;1807575;78;25235;-90
2023/09/26 05:34:09;;;;;;;18.40;7.00;;;14.40;99.90;;;;;;1944943;72;27706;-90
2023/09/26 05:50:40;;;;;;;28.20;6.83;;;14.40;99.90;;;;;;1975315;70;27054;-90
2023/09/26 05:53:28;;;;;;;17.13;5.73;;;14.50;99.90;;;;;;1898731;74;25817;-90
2023/09/26 05:56:17;;;;;;;18.70;5.83;;;14.60;99.90;;;;;;1909030;74;25586;-91
2023/09/26 05:59:06;;;;;;;25.27;5.80;;;14.60;99.90;;;;;;1906092;74;25266;-90
2023/09/26 06:01:54;;;;;;;15.30;5.60;;;14.60;99.90;;;;;;1910295;74;25179;-90
2023/09/26 06:04:44;;;;;;;22.67;5.50;;;14.60;99.90;;;;;;1925918;72;25232;-90
2023/09/26 06:07:33;;;;;;;18.53;5.60;;;14.60;99.90;;;;;;1911471;73;25262;-90
2023/09/26 06:10:21;;;;;;;14.67;5.17;;;14.70;99.90;;;;;;1914145;74;25231;-90
2023/09/26 06:13:10;;;;;;;18.87;5.93;;;14.70;99.90;;;;;;1905798;74;25729;-90
2023/09/26 06:15:59;;;;;;;14.83;5.43;;;14.70;99.90;;;;;;1899787;72;25299;-90
2023/09/26 06:18:48;;;;;;;16.13;5.87;;;14.80;99.90;;;;;;1906838;74;25259;-90
2023/09/26 06:21:36;;;;;;;15.63;5.70;;;14.80;99.90;;;;;;1905054;74;25291;-90
2023/09/26 06:24:24;;;;;;;15.87;5.80;;;14.90;99.90;;;;;;1911078;74;25172;-90
2023/09/26 06:27:13;;;;;;;20.33;5.47;;;15.00;99.90;;;;;;1909077;74;25227;-90
2023/09/26 06:30:02;;;;;;;18.60;5.17;;;15.00;99.90;;;;;;1877229;74;25707;-90
2023/09/26 06:32:50;;;;;;;12.97;4.73;;;15.10;99.90;;;;;;1851889;77;25303;-90
2023/09/26 06:35:39;;;;;;;14.20;5.27;;;15.10;99.90;;;;;;1866868;76;25250;-90
2023/09/26 06:53:54;;;;;;;16.93;5.00;;;15.20;99.90;;;;;;1941878;73;26793;-89
2023/09/26 06:59:38;;;;;;;20.33;4.70;;;15.40;99.90;;;;;;1962566;72;26684;-89
2023/09/26 07:02:34;;;;;;;17.50;5.47;;;15.40;99.90;;;;;;1942275;73;25661;-90
2023/09/26 07:05:23;;;;;;;14.63;4.40;;;15.50;99.90;;;;;;1944966;73;25745;-90
2023/09/26 07:08:12;;;;;;;18.10;4.70;;;15.50;99.90;;;;;;1926246;73;25185;-90
2023/09/26 07:11:05;;;;;;;14.43;4.80;;;15.60;99.90;;;;;;1942316;72;25216;-89
2023/09/26 07:13:55;;;;;;;14.40;4.43;;;15.60;99.90;;;;;;1939312;73;25172;-90
2023/09/26 07:16:44;;;;;;;14.63;4.23;;;15.60;99.90;;;;;;1941291;72;25229;-89
2023/09/26 07:19:33;;;;;;;15.80;4.40;;;15.60;99.90;;;;;;1957301;72;25238;-90
2023/09/26 07:22:24;;;;;;;16.00;4.83;;;15.60;99.90;;;;;;1935031;73;25812;-90
2023/09/26 07:25:12;;;;;;;15.23;4.40;;;15.60;99.90;;;;;;1938034;73;25772;-90
2023/09/26 07:28:01;;;;;;;21.13;4.27;;;15.70;99.90;;;;;;1928803;72;25234;-90
2023/09/26 07:30:53;;;;;;;10.07;4.23;;;15.70;99.90;;;;;;1931732;72;25223;-90
2023/09/26 07:33:40;;;;;;;18.10;4.53;;;15.70;99.90;;;;;;1925830;73;25889;-90
2023/09/26 07:36:29;;;;;;;14.27;4.70;;;15.70;99.90;;;;;;1925466;72;25685;-90
2023/09/26 07:55:12;;;;;;;15.60;3.80;;;15.80;99.90;;;;;;1977344;71;26819;-91
2023/09/26 07:58:01;;;;;;;11.23;3.70;;;16.70;99.90;;;;;;1948242;73;25316;-91
2023/09/26 08:00:50;;;;;;;13.70;3.90;;;16.60;99.90;;;;;;1908566;74;25266;-90
2023/09/26 08:03:41;;;;;;;13.93;3.63;;;16.40;99.90;;;;;;1937616;72;25243;-90
2023/09/26 08:06:30;;;;;;;14.33;3.60;;;16.50;99.90;;;;;;1928987;73;25214;-90
2023/09/26 08:09:20;;;;;;;9.50;3.70;;;16.50;99.90;;;;;;1910211;73;25191;-90
2023/09/26 08:12:15;;;;;;;13.40;4.03;;;16.40;99.90;;;;;;1929714;73;25259;-91
2023/09/26 08:15:05;;;;;;;11.07;3.83;;;16.50;99.90;;;;;;1937772;72;25276;-90
2023/09/26 08:17:53;;;;;;;16.17;3.90;;;16.50;99.90;;;;;;1905257;74;25217;-90
2023/09/26 08:35:10;;;;;;;12.83;3.80;;;16.50;99.90;;;;;;1935583;73;26452;-89
2023/09/26 08:51:50;;;;;;;21.17;4.30;;;16.60;99.90;;;;;;1929967;73;26929;-89
2023/09/26 09:25:37;;;;;;;15.83;4.10;;;16.90;99.90;;;;;;1990308;71;27072;-90
2023/09/26 09:34:19;;;;;;;15.07;4.13;;;17.20;99.90;;;;;;1994098;70;26344;-90
2023/09/26 09:37:07;;;;;;;17.13;4.40;;;16.80;99.90;;;;;;1970823;72;25276;-90
2023/09/26 09:39:58;;;;;;;18.33;4.03;;;16.80;99.90;;;;;;2061875;69;25201;-90
2023/09/26 11:01:15;;;;;;;11.53;3.17;;;17.50;99.90;;;;;;1940136;72;27085;-90
2023/09/26 11:04:03;;;;;;;12.83;3.70;;;17.50;99.90;;;;;;1929897;73;25368;-91
2023/09/26 11:06:52;;;;;;;11.10;3.40;;;17.40;99.90;;;;;;1928926;73;25511;-91
2023/09/26 11:09:44;;;;;;;14.43;3.27;;;17.30;99.90;;;;;;1916682;73;25679;-90
2023/09/26 11:12:33;;;;;;;15.40;3.00;;;17.40;99.90;;;;;;1926770;73;25721;-90
2023/09/26 11:15:22;;;;;;;12.33;3.50;;;17.20;99.90;;;;;;1922426;73;26909;-89
2023/09/26 11:32:07;;;;;;;13.57;3.67;;;17.40;99.90;;;;;;1877565;75;26421;-90
2023/09/26 11:34:56;;;;;;;11.30;3.40;;;18.00;99.90;;;;;;1825061;78;25156;-90
2023/09/26 11:37:44;;;;;;;8.10;3.10;;;18.00;99.90;;;;;;1810618;77;26543;-90
2023/09/26 11:40:33;;;;;;;12.00;3.67;;;18.00;99.90;;;;;;1816744;77;25616;-90
2023/09/26 11:43:22;;;;;;;11.00;3.87;;;18.00;99.90;;;;;;1811888;77;25317;-90
2023/09/26 11:59:45;;;;;;;10.60;3.33;;;17.90;99.90;;;;;;1910874;71;27193;-90
2023/09/26 12:29:42;;;;;;;8.47;3.07;;;18.20;99.90;;;;;;1839697;74;26455;-90
2023/09/26 12:35:50;;;;;;;14.57;3.80;;;18.20;99.90;;;;;;1961196;71;26364;-90
2023/09/26 12:38:40;;;;;;;11.37;3.37;;;17.90;99.90;;;;;;1951550;73;25224;-90
2023/09/26 12:41:29;;;;;;;14.83;3.77;;;18.00;99.90;;;;;;1992077;71;25352;-90
2023/09/26 12:44:17;;;;;;;11.67;4.00;;;17.90;99.90;;;;;;1931197;73;25296;-90
2023/09/26 12:47:06;;;;;;;14.17;4.50;;;17.70;99.90;;;;;;1921944;74;25676;-90
2023/09/26 12:49:55;;;;;;;13.10;3.73;;;17.70;99.90;;;;;;1911347;75;25279;-90
2023/09/26 12:55:30;;;;;;;17.50;4.37;;;17.80;99.90;;;;;;1955642;72;26933;-90
2023/09/26 12:58:19;;;;;;;18.53;4.10;;;17.70;99.90;;;;;;1942392;73;25245;-90
2023/09/26 13:01:08;;;;;;;11.17;3.73;;;17.60;99.90;;;;;;1925215;72;25246;-90
2023/09/26 13:03:56;;;;;;;11.87;3.80;;;17.60;99.90;;;;;;1924374;73;25241;-90
2023/09/26 13:06:45;;;;;;;9.13;3.63;;;17.50;99.90;;;;;;1940273;72;25240;-90
2023/09/26 13:09:34;;;;;;;12.43;4.03;;;17.50;99.90;;;;;;1931362;72;25293;-90
2023/09/26 13:12:22;;;;;;;12.27;3.70;;;17.60;99.90;;;;;;1930693;73;25327;-90
2023/09/26 13:15:12;;;;;;;14.80;4.00;;;17.60;99.90;;;;;;1930989;72;25337;-90
2023/09/26 13:59:58;;;;;;;9.77;3.90;;;17.70;99.90;;;;;;1851796;72;27017;-90
2023/09/26 14:18:29;;;;;;;14.17;4.67;;;17.70;99.90;;;;;;1869088;76;27039;-90
2023/09/26 14:21:17;;;;;;;11.30;4.43;;;17.70;99.90;;;;;;1840831;77;25774;-90
2023/09/26 14:24:09;;;;;;;9.60;4.10;;;17.70;99.90;;;;;;1835837;77;25239;-90
2023/09/26 14:26:57;;;;;;;17.20;4.63;;;17.70;99.90;;;;;;1837946;77;25288;-90
2023/09/26 14:29:46;;;;;;;13.50;4.00;;;17.70;99.90;;;;;;1823628;77;25704;-90
2023/09/26 14:32:34;;;;;;;5.10;3.63;;;17.60;99.90;;;;;;1848523;77;25237;-90
2023/09/26 14:35:23;;;;;;;9.20;4.23;;;17.50;99.90;;;;;;1848939;77;25271;-90
2023/09/26 14:38:11;;;;;;;10.70;4.30;;;17.40;99.90;;;;;;1840053;77;25187;-90
2023/09/26 14:41:00;;;;;;;8.73;4.57;;;17.40;99.90;;;;;;1828127;77;25773;-90
2023/09/26 14:43:49;;;;;;;12.30;4.70;;;17.20;99.90;;;;;;1804556;77;25837;-90
2023/09/26 14:46:39;;;;;;;12.33;4.60;;;17.20;99.90;;;;;;1800445;77;25228;-91
2023/09/26 15:09:24;;;;;;;15.70;5.13;;;17.30;99.90;;;;;;1955905;72;26443;-90
2023/09/26 15:12:14;;;;;;;8.53;4.43;;;17.20;99.90;;;;;;1952806;72;25253;-91
2023/09/26 15:15:03;;;;;;;12.27;4.67;;;17.20;99.90;;;;;;1904833;73;25200;-90
2023/09/26 15:17:52;;;;;;;7.90;4.63;;;17.20;99.90;;;;;;1868190;75;25330;-90
2023/09/26 15:20:43;;;;;;;10.57;4.00;;;17.10;99.90;;;;;;1910771;74;26529;-90
2023/09/26 15:23:32;;;;;;;10.90;4.47;;;17.10;99.90;;;;;;1899841;74;25795;-90
2023/09/26 15:26:23;;;;;;;8.73;4.60;;;17.10;99.90;;;;;;1894324;74;25248;-90
2023/09/26 15:29:12;;;;;;;13.93;4.50;;;17.00;99.90;;;;;;1905054;74;25372;-90
2023/09/26 15:32:00;;;;;;;15.57;4.50;;;16.90;99.90;;;;;;1883003;74;25168;-90
2023/09/26 15:34:50;;;;;;;11.27;4.97;;;16.90;99.90;;;;;;1937569;73;25251;-91
2023/09/26 15:37:40;;;;;;;10.57;4.70;;;16.90;99.90;;;;;;1930902;72;25213;-91
2023/09/26 15:40:33;;;;;;;13.30;4.63;;;17.00;99.90;;;;;;1933871;72;26344;-91
2023/09/26 15:43:24;;;;;;;16.73;4.50;;;17.00;99.90;;;;;;1933338;73;25264;-91
2023/09/26 15:46:17;;;;;;;14.33;4.90;;;16.90;99.90;;;;;;1936852;72;25292;-91
2023/09/26 16:27:16;;;;;;;11.60;6.00;;;16.60;99.90;;;;;;1856796;76;27194;-91
2023/09/26 16:43:37;;;;;;;17.07;6.77;;;16.10;99.90;;;;;;1901301;73;27068;-90
2023/09/26 16:59:43;;;;;;;17.00;6.23;;;16.00;99.90;;;;;;1820591;77;28903;-90
2023/09/26 17:05:27;;;;;;;12.53;6.80;;;15.90;99.90;;;;;;1949717;72;26937;-91
2023/09/26 17:08:16;;;;;;;17.23;6.83;;;15.80;99.90;;;;;;1926158;73;25287;-91
2023/09/26 17:11:05;;;;;;;17.97;7.53;;;15.70;99.90;;;;;;1927642;73;25276;-91
2023/09/26 17:13:55;;;;;;;19.13;7.33;;;15.70;99.90;;;;;;1936850;72;25853;-91
2023/09/26 17:16:43;;;;;;;10.63;7.50;;;15.60;99.90;;;;;;1926266;72;25743;-91
2023/09/26 17:47:58;;;;;;;16.47;6.70;;;15.60;99.90;;;;;;1908088;73;27057;-91
2023/09/26 18:04:15;;;;;;;16.23;6.27;;;15.60;99.90;;;;;;1922292;72;27094;-92
2023/09/26 18:20:31;;;;;;;14.63;6.27;;;15.80;99.90;;;;;;1898614;73;27047;-90
2023/09/26 18:50:32;;;;;;;13.27;5.07;;;16.00;99.90;;;;;;1881479;75;27100;-91
2023/09/26 18:56:14;;;;;;;15.80;5.20;;;15.90;99.90;;;;;;1957562;72;26993;-91
2023/09/26 18:59:04;;;;;;;13.13;6.10;;;15.80;99.90;;;;;;1924461;73;25814;-91
2023/09/26 19:01:54;;;;;;;10.00;6.20;;;15.80;99.90;;;;;;1943536;73;25296;-91
2023/09/26 19:04:44;;;;;;;12.83;6.47;;;15.60;99.90;;;;;;1917841;73;25586;-91
2023/09/26 19:07:36;;;;;;;15.63;6.53;;;15.50;99.90;;;;;;1935716;72;26409;-91
2023/09/26 19:10:26;;;;;;;10.73;6.60;;;15.50;99.90;;;;;;1918325;73;25539;-91
2023/09/26 19:13:17;;;;;;;11.00;6.17;;;15.40;99.90;;;;;;1924453;73;25360;-91
2023/09/26 19:16:05;;;;;;;10.13;6.17;;;15.30;99.90;;;;;;1938304;72;25788;-91
2023/09/26 19:58:06;;;;;;;9.00;4.70;;;14.90;99.90;;;;;;1992279;70;26304;-90
2023/09/26 20:35:55;;;;;;;8.10;4.73;;;15.10;99.90;;;;;;1875494;76;28060;-91
2023/09/26 21:02:58;;;;;;;8.20;5.30;;;14.80;99.90;;;;;;1984713;71;27108;-91
2023/09/26 21:19:16;;;;;;;5.80;5.00;;;14.60;99.90;;;;;;1930121;72;27050;-91
2023/09/26 21:46:18;;;;;;;8.07;5.07;;;14.50;99.90;;;;;;1930840;72;27697;-92
2023/09/26 22:28:38;;;;;;;6.17;4.40;;;14.70;99.90;;;;;;1920647;73;27705;-89
2023/09/26 23:10:36;;;;;;;5.57;4.20;;;15.20;99.90;;;;;;1913850;73;26386;-91
2023/09/26 23:16:18;;;;;;;6.77;4.10;;;15.30;99.90;;;;;;1945837;72;27153;-90
2023/09/26 23:19:07;;;;;;;4.37;3.97;;;15.20;99.90;;;;;;1920855;73;25266;-91
2023/09/26 23:21:56;;;;;;;5.23;4.17;;;15.20;99.90;;;;;;1921677;73;25239;-91
2023/09/26 23:24:50;;;;;;;4.77;4.30;;;15.20;99.90;;;;;;1916859;73;25747;-91
2023/09/26 23:27:38;;;;;;;4.37;3.73;;;15.10;99.90;;;;;;1927851;73;25273;-91
2023/09/26 23:30:27;;;;;;;6.47;4.03;;;15.10;99.90;;;;;;1925991;73;25279;-91
2023/09/26 23:33:16;;;;;;;5.97;4.53;;;15.00;99.90;;;;;;1928430;73;25229;-91
2023/09/26 23:36:06;;;;;;;5.17;4.43;;;15.00;99.90;;;;;;1917325;73;25576;-91
2023/09/26 23:52:54;;;;;;;6.13;4.30;;;15.10;99.90;;;;;;1930544;72;26810;-91
2023/09/26 23:58:35;;;;;;;4.60;4.20;;;15.10;99.90;;;;;;1942390;72;27008;-90
